createdAt,value
2018-11-02T00:01:41.581Z,12.29
2018-11-02T00:04:09.952Z,11.48
2018-11-02T00:06:38.283Z,11.60
2018-11-02T00:09:07.236Z,12.03
2018-11-02T00:11:35.544Z,11.59
2018-11-02T00:14:03.882Z,11.40
2018-11-02T00:16:33.263Z,11.53
2018-11-02T00:19:01.623Z,11.80
2018-11-02T00:21:29.990Z,11.46
2018-11-02T00:23:58.343Z,11.41
2018-11-02T00:26:26.699Z,11.72
2018-11-02T00:28:55.092Z,11.53
2018-11-02T00:31:23.418Z,11.66
2018-11-02T00:33:51.743Z,11.22
2018-11-02T00:36:20.051Z,11.70
2018-11-02T00:38:48.368Z,11.67
2018-11-02T00:41:16.721Z,11.67
2018-11-02T00:43:45.034Z,11.68
2018-11-02T00:46:13.366Z,12.13
2018-11-02T00:48:41.675Z,11.65
2018-11-02T00:51:09.999Z,11.60
2018-11-02T00:53:38.283Z,11.83
2018-11-02T00:56:06.653Z,12.00
2018-11-02T00:58:34.982Z,11.79
2018-11-02T01:01:03.319Z,11.62
2018-11-02T01:03:31.669Z,11.49
2018-11-02T01:05:59.973Z,11.67
2018-11-02T01:08:28.507Z,11.66
2018-11-02T01:10:56.883Z,11.66
2018-11-02T01:13:25.186Z,11.39
2018-11-02T01:15:53.523Z,11.62
2018-11-02T01:18:21.830Z,11.61
2018-11-02T01:20:50.158Z,11.45
2018-11-02T01:23:18.463Z,11.77
2018-11-02T01:25:46.769Z,11.68
2018-11-02T01:28:15.108Z,11.49
2018-11-02T01:30:43.443Z,11.27
2018-11-02T01:33:11.810Z,11.33
2018-11-02T01:35:40.112Z,11.64
2018-11-02T01:38:08.463Z,11.46
2018-11-02T01:40:36.877Z,11.55
2018-11-02T01:43:06.099Z,11.55
2018-11-02T01:45:34.413Z,11.82
2018-11-02T01:48:02.711Z,11.48
2018-11-02T01:50:31.007Z,11.59
2018-11-02T01:52:59.330Z,11.88
2018-11-02T01:55:27.658Z,11.74
2018-11-02T01:57:55.993Z,11.33
2018-11-02T02:00:24.365Z,11.36
2018-11-02T02:02:52.695Z,11.99
2018-11-02T02:05:21.010Z,11.53
2018-11-02T02:07:49.336Z,11.79
2018-11-02T02:10:17.683Z,11.48
2018-11-02T02:12:46.028Z,11.90
2018-11-02T02:15:14.358Z,11.52
2018-11-02T02:17:42.676Z,11.29
2018-11-02T02:20:10.983Z,11.18
2018-11-02T02:22:39.271Z,11.38
2018-11-02T02:25:08.016Z,11.37
2018-11-02T02:27:37.212Z,11.14
2018-11-02T02:30:07.889Z,11.65
2018-11-02T02:32:36.467Z,11.24
2018-11-02T02:35:05.224Z,11.59
2018-11-02T02:37:33.592Z,11.29
2018-11-02T02:40:02.017Z,11.39
2018-11-02T02:42:30.486Z,11.63
2018-11-02T02:44:58.962Z,11.43
2018-11-02T02:47:27.373Z,11.52
2018-11-02T02:49:55.794Z,11.37
2018-11-02T02:52:24.154Z,12.11
2018-11-02T02:54:52.523Z,11.55
2018-11-02T02:57:20.915Z,11.29
2018-11-02T02:59:49.322Z,11.36
2018-11-02T03:02:17.696Z,11.68
2018-11-02T03:04:46.131Z,11.37
2018-11-02T03:07:14.504Z,11.77
2018-11-02T03:09:43.022Z,11.59
2018-11-02T03:12:11.462Z,11.31
2018-11-02T03:14:39.901Z,11.74
2018-11-02T03:17:08.486Z,11.00
2018-11-02T03:19:36.922Z,10.98
2018-11-02T03:22:05.344Z,11.10
2018-11-02T03:24:33.719Z,10.98
2018-11-02T03:27:02.339Z,11.69
2018-11-02T03:29:30.942Z,11.38
2018-11-02T03:31:59.347Z,11.28
2018-11-02T03:34:27.863Z,11.12
2018-11-02T03:36:56.258Z,11.64
2018-11-02T03:39:24.630Z,11.72
2018-11-02T03:41:53.010Z,11.19
2018-11-02T03:44:21.379Z,11.34
2018-11-02T03:46:49.751Z,11.15
2018-11-02T03:49:18.163Z,11.70
2018-11-02T03:51:46.525Z,11.69
2018-11-02T03:54:14.977Z,11.66
2018-11-02T03:56:43.448Z,11.89
2018-11-02T03:59:12.259Z,11.29
2018-11-02T04:01:40.625Z,11.53
2018-11-02T04:04:09.255Z,11.76
2018-11-02T04:06:37.607Z,11.72
2018-11-02T04:09:07.062Z,12.07
2018-11-02T04:11:35.519Z,11.79
2018-11-02T04:14:03.903Z,12.03
2018-11-02T04:16:32.298Z,11.69
2018-11-02T04:19:00.695Z,11.21
2018-11-02T04:21:29.079Z,11.59
2018-11-02T04:23:57.440Z,11.67
2018-11-02T04:26:25.851Z,11.42
2018-11-02T04:28:54.274Z,11.28
2018-11-02T04:31:22.644Z,12.06
2018-11-02T04:33:51.099Z,11.58
2018-11-02T04:36:19.467Z,11.42
2018-11-02T04:38:47.843Z,11.19
2018-11-02T04:41:16.282Z,11.51
2018-11-02T04:43:44.723Z,12.12
2018-11-02T04:46:13.100Z,11.77
2018-11-02T04:48:41.528Z,12.46
2018-11-02T04:51:09.982Z,11.45
2018-11-02T04:53:38.328Z,11.99
2018-11-02T04:56:06.731Z,11.71
2018-11-02T04:58:35.194Z,11.65
2018-11-02T05:01:03.626Z,11.54
2018-11-02T05:03:32.127Z,11.25
2018-11-02T05:06:00.531Z,11.70
2018-11-02T05:08:28.941Z,11.45
2018-11-02T05:10:57.360Z,11.60
2018-11-02T05:13:25.759Z,11.27
2018-11-02T05:15:54.246Z,11.63
2018-11-02T05:18:22.675Z,11.26
2018-11-02T05:20:51.073Z,11.40
2018-11-02T05:23:19.515Z,11.61
2018-11-02T05:25:47.939Z,11.75
2018-11-02T05:28:16.411Z,11.27
2018-11-02T05:30:44.818Z,11.22
2018-11-02T05:33:13.215Z,11.61
2018-11-02T05:35:41.625Z,11.08
2018-11-02T05:38:10.143Z,10.88
2018-11-02T05:40:38.526Z,10.99
2018-11-02T05:43:06.910Z,11.34
2018-11-02T05:45:35.387Z,10.88
2018-11-02T05:48:03.764Z,11.03
2018-11-02T05:50:32.361Z,11.41
2018-11-02T05:53:00.707Z,11.59
2018-11-02T05:55:29.196Z,10.56
2018-11-02T05:57:57.783Z,11.49
2018-11-02T06:00:26.188Z,10.86
2018-11-02T06:02:54.589Z,10.96
2018-11-02T06:05:23.823Z,10.45
2018-11-02T06:07:52.338Z,10.48
2018-11-02T06:10:20.583Z,10.42
2018-11-02T06:12:48.888Z,11.20
2018-11-02T06:15:17.298Z,11.36
2018-11-02T06:17:45.709Z,11.64
2018-11-02T06:20:14.183Z,10.62
2018-11-02T06:22:42.595Z,10.25
2018-11-02T06:25:11.227Z,11.03
2018-11-02T06:27:39.611Z,10.96
2018-11-02T06:30:08.572Z,10.90
2018-11-02T06:32:36.999Z,10.37
2018-11-02T06:35:06.150Z,10.68
2018-11-02T06:37:34.510Z,10.44
2018-11-02T06:40:02.903Z,10.18
2018-11-02T06:42:31.363Z,10.72
2018-11-02T06:44:59.985Z,10.43
2018-11-02T06:47:28.264Z,10.55
2018-11-02T06:49:56.909Z,10.41
2018-11-02T06:52:25.434Z,9.85
2018-11-02T06:54:53.865Z,10.08
2018-11-02T06:57:22.246Z,10.61
2018-11-02T06:59:50.840Z,9.97
2018-11-02T07:02:19.110Z,10.00
2018-11-02T07:04:47.575Z,9.84
2018-11-02T07:07:16.080Z,9.94
2018-11-02T07:09:44.453Z,9.97
2018-11-02T07:12:12.811Z,9.98
2018-11-02T07:14:41.203Z,9.49
2018-11-02T07:17:09.608Z,10.18
2018-11-02T07:19:38.114Z,10.38
2018-11-02T07:22:06.563Z,10.45
2018-11-02T07:24:35.126Z,10.24
2018-11-02T07:27:03.963Z,10.52
2018-11-02T07:29:32.287Z,10.37
2018-11-02T07:32:00.723Z,10.39
2018-11-02T07:34:29.260Z,10.64
2018-11-02T07:36:57.532Z,10.66
2018-11-02T07:39:25.980Z,10.72
2018-11-02T07:41:54.352Z,11.18
2018-11-02T07:44:22.748Z,11.12
2018-11-02T07:46:51.229Z,10.99
2018-11-02T07:49:19.694Z,10.99
2018-11-02T07:51:48.047Z,10.92
2018-11-02T07:54:16.490Z,11.02
2018-11-02T07:56:44.908Z,10.74
2018-11-02T07:59:13.354Z,10.61
2018-11-02T08:01:41.945Z,11.06
2018-11-02T08:04:10.295Z,11.01
2018-11-02T08:06:38.747Z,11.29
2018-11-02T08:09:09.074Z,11.10
2018-11-02T08:11:37.553Z,11.48
2018-11-02T08:14:06.274Z,11.17
2018-11-02T08:16:34.708Z,11.26
2018-11-02T08:19:03.208Z,10.88
2018-11-02T08:21:31.557Z,11.37
2018-11-02T08:23:59.962Z,11.44
2018-11-02T08:26:28.359Z,11.93
2018-11-02T08:28:56.767Z,12.32
2018-11-02T08:31:25.287Z,12.35
2018-11-02T08:33:53.723Z,12.13
2018-11-02T08:36:22.139Z,12.00
2018-11-02T08:38:50.583Z,12.48
2018-11-02T08:41:19.003Z,12.19
2018-11-02T08:43:47.527Z,12.20
2018-11-02T08:46:16.045Z,11.99
2018-11-02T08:48:44.600Z,12.13
2018-11-02T08:51:13.015Z,12.21
2018-11-02T08:53:41.481Z,12.17
2018-11-02T08:56:09.949Z,12.14
2018-11-02T08:58:38.529Z,13.33
2018-11-02T09:01:06.832Z,14.48
2018-11-02T09:03:36.091Z,14.93
2018-11-02T09:06:04.583Z,16.30
2018-11-02T09:08:32.999Z,16.82
2018-11-02T09:11:01.522Z,16.53
2018-11-02T09:13:29.944Z,16.65
2018-11-02T09:15:58.351Z,15.84
2018-11-02T09:18:26.855Z,15.09
2018-11-02T09:20:55.259Z,14.79
2018-11-02T09:23:23.663Z,14.56
2018-11-02T09:25:52.191Z,15.73
2018-11-02T09:28:20.725Z,15.89
2018-11-02T09:30:49.148Z,16.42
2018-11-02T09:33:17.595Z,16.05
2018-11-02T09:35:46.011Z,16.24
2018-11-02T09:38:14.390Z,16.11
2018-11-02T09:40:42.866Z,16.23
2018-11-02T09:43:11.303Z,16.34
2018-11-02T09:45:39.759Z,16.78
2018-11-02T09:48:08.183Z,16.80
2018-11-02T09:50:36.890Z,17.45
2018-11-02T09:53:05.274Z,17.67
2018-11-02T09:55:33.687Z,18.81
2018-11-02T09:58:02.167Z,17.13
2018-11-02T10:00:30.570Z,16.84
2018-11-02T10:02:58.998Z,16.67
2018-11-02T10:05:27.412Z,16.40
2018-11-02T10:07:55.926Z,16.14
2018-11-02T10:10:24.412Z,16.27
2018-11-02T10:12:52.945Z,16.25
2018-11-02T10:15:21.406Z,15.97
2018-11-02T10:17:49.775Z,16.26
2018-11-02T10:20:18.198Z,15.32
2018-11-02T10:22:46.614Z,15.57
2018-11-02T10:25:15.003Z,14.80
2018-11-02T10:27:43.846Z,14.85
2018-11-02T10:30:13.509Z,15.16
2018-11-02T10:32:43.190Z,14.73
2018-11-02T10:35:11.612Z,14.04
2018-11-02T10:37:40.104Z,15.07
2018-11-02T10:40:13.067Z,14.78
2018-11-02T10:42:42.264Z,14.58
2018-11-02T10:45:10.675Z,14.04
2018-11-02T10:47:39.310Z,13.54
2018-11-02T10:50:08.310Z,14.04
2018-11-02T10:52:36.727Z,13.43
2018-11-02T10:55:05.415Z,13.66
2018-11-02T10:57:33.930Z,13.96
2018-11-02T11:00:02.389Z,13.93
2018-11-02T11:02:35.995Z,14.56
2018-11-02T11:05:05.037Z,14.35
2018-11-02T11:07:33.440Z,13.58
2018-11-02T11:10:01.840Z,14.19
2018-11-02T11:12:30.524Z,13.65
2018-11-02T11:14:58.776Z,14.28
2018-11-02T11:17:27.262Z,14.00
2018-11-02T11:19:55.718Z,13.99
2018-11-02T11:22:24.095Z,12.89
2018-11-02T11:24:52.808Z,13.18
2018-11-02T11:27:21.289Z,13.32
2018-11-02T11:29:49.747Z,13.45
2018-11-02T11:32:18.181Z,13.32
2018-11-02T11:34:46.546Z,13.66
2018-11-02T11:37:14.963Z,13.44
2018-11-02T11:39:43.448Z,13.52
2018-11-02T11:44:52.216Z,13.65
2018-11-02T11:47:20.588Z,13.67
2018-11-02T11:49:49.136Z,14.38
2018-11-02T11:52:17.485Z,14.27
2018-11-02T11:54:45.843Z,15.05
2018-11-02T11:57:14.195Z,14.75
2018-11-02T11:59:42.548Z,14.96
2018-11-02T12:02:10.947Z,15.31
2018-11-02T12:04:39.248Z,15.75
2018-11-02T12:07:07.543Z,16.35
2018-11-02T12:09:35.914Z,16.43
2018-11-02T12:12:04.278Z,17.82
2018-11-02T12:14:32.644Z,19.41
2018-11-02T12:17:01.029Z,17.99
2018-11-02T12:19:29.407Z,19.74
2018-11-02T12:21:57.872Z,18.96
2018-11-02T12:24:26.113Z,17.35
2018-11-02T12:26:54.434Z,17.16
2018-11-02T12:29:22.752Z,16.14
2018-11-02T12:31:51.079Z,15.51
2018-11-02T12:34:19.492Z,15.55
2018-11-02T12:36:47.893Z,15.23
2018-11-02T12:39:16.238Z,15.28
2018-11-02T12:41:44.588Z,14.28
2018-11-02T12:44:13.025Z,14.55
2018-11-02T12:46:41.347Z,14.57
2018-11-02T12:49:10.062Z,14.78
2018-11-02T12:51:38.239Z,14.50
2018-11-02T12:54:06.652Z,14.80
2018-11-02T12:56:35.203Z,14.82
2018-11-02T12:59:03.945Z,15.20
2018-11-02T13:01:32.395Z,15.06
2018-11-02T13:04:00.971Z,15.46
2018-11-02T13:06:29.591Z,15.16
2018-11-02T13:08:58.140Z,14.84
2018-11-02T13:11:26.652Z,14.78
2018-11-02T13:13:55.117Z,14.53
2018-11-02T13:16:23.605Z,14.48
2018-11-02T13:18:52.374Z,14.77
2018-11-02T13:21:20.979Z,14.32
2018-11-02T13:23:49.423Z,14.36
2018-11-02T13:26:17.961Z,14.73
2018-11-02T13:28:46.306Z,14.39
2018-11-02T13:31:14.805Z,14.03
2018-11-02T13:33:43.239Z,14.30
2018-11-02T13:36:11.755Z,13.97
2018-11-02T13:38:40.183Z,13.73
2018-11-02T13:41:08.671Z,13.89
2018-11-02T13:43:37.208Z,14.50
2018-11-02T13:46:05.755Z,14.39
2018-11-02T13:48:34.157Z,14.71
2018-11-02T13:51:02.627Z,14.57
2018-11-02T13:53:31.255Z,14.44
2018-11-02T13:55:59.588Z,13.97
2018-11-02T13:58:28.042Z,13.70
2018-11-02T14:00:56.367Z,13.91
2018-11-02T14:03:24.791Z,14.03
2018-11-02T14:05:53.300Z,14.57
2018-11-02T14:08:21.859Z,14.14
2018-11-02T14:10:50.324Z,13.50
2018-11-02T14:13:18.730Z,13.70
2018-11-02T14:15:47.166Z,14.18
2018-11-02T14:18:15.644Z,14.23
2018-11-02T14:20:44.080Z,14.03
2018-11-02T14:23:12.647Z,14.04
2018-11-02T14:25:41.228Z,13.82
2018-11-02T14:28:09.847Z,14.05
2018-11-02T14:30:38.359Z,13.70
2018-11-02T14:33:06.850Z,13.76
2018-11-02T14:35:35.318Z,13.56
2018-11-02T14:38:03.751Z,13.22
2018-11-02T14:40:32.252Z,13.30
2018-11-02T14:43:00.682Z,13.19
2018-11-02T14:45:29.243Z,13.53
2018-11-02T14:47:57.810Z,13.28
2018-11-02T14:50:27.291Z,13.11
2018-11-02T14:52:56.918Z,13.58
2018-11-02T14:55:26.684Z,13.64
2018-11-02T14:57:55.518Z,13.81
2018-11-02T15:00:25.080Z,13.51
2018-11-02T15:02:54.392Z,13.11
2018-11-02T15:05:29.769Z,13.16
2018-11-02T15:07:58.859Z,12.83
2018-11-02T15:10:28.308Z,12.73
2018-11-02T15:12:56.663Z,12.59
2018-11-02T15:15:24.995Z,12.95
2018-11-02T15:17:53.327Z,12.72
2018-11-02T15:20:21.643Z,13.01
2018-11-02T15:22:49.975Z,13.33
2018-11-02T15:25:18.340Z,12.99
2018-11-02T15:27:46.662Z,13.39
2018-11-02T15:30:15.238Z,13.46
2018-11-02T15:32:44.615Z,12.91
2018-11-02T15:35:13.203Z,12.88
2018-11-02T15:37:41.953Z,12.72
2018-11-02T15:40:11.280Z,12.82
2018-11-02T15:42:39.619Z,13.01
2018-11-02T15:45:09.522Z,13.13
2018-11-02T15:47:37.831Z,13.12
2018-11-02T15:50:06.433Z,13.00
2018-11-02T15:52:34.999Z,12.75
2018-11-02T15:55:03.443Z,12.89
2018-11-02T15:57:31.905Z,12.55
2018-11-02T16:00:00.387Z,12.69
2018-11-02T16:02:28.820Z,12.92
2018-11-02T16:04:57.386Z,12.88
2018-11-02T16:07:25.778Z,13.23
2018-11-02T16:09:54.272Z,13.00
2018-11-02T16:12:22.682Z,13.09
2018-11-02T16:14:51.183Z,12.22
2018-11-02T16:17:19.672Z,12.00
2018-11-02T16:19:48.089Z,12.55
2018-11-02T16:22:16.575Z,12.38
2018-11-02T16:24:44.996Z,12.20
2018-11-02T16:27:13.482Z,12.49
2018-11-02T16:29:41.927Z,12.55
2018-11-02T16:32:10.519Z,12.58
2018-11-02T16:34:38.975Z,12.93
2018-11-02T16:37:07.371Z,12.83
2018-11-02T16:39:35.816Z,12.89
2018-11-02T16:42:04.263Z,12.63
2018-11-02T16:44:32.715Z,12.70
2018-11-02T16:47:07.623Z,12.67
2018-11-02T16:49:36.010Z,12.64
2018-11-02T16:52:04.369Z,12.59
2018-11-02T16:54:39.049Z,12.34
2018-11-02T16:57:07.382Z,12.12
2018-11-02T16:59:35.819Z,11.93
2018-11-02T17:02:04.234Z,12.41
2018-11-02T17:04:32.654Z,12.53
2018-11-02T17:07:07.512Z,12.65
2018-11-02T17:09:35.831Z,12.22
2018-11-02T17:12:04.211Z,12.01
2018-11-02T17:14:32.575Z,11.85
2018-11-02T17:17:01.017Z,12.27
2018-11-02T17:19:29.339Z,11.91
2018-11-02T17:21:57.787Z,11.90
2018-11-02T17:24:26.100Z,12.26
2018-11-02T17:26:54.428Z,12.10
2018-11-02T17:29:22.811Z,11.35
2018-11-02T17:31:51.159Z,11.80
2018-11-02T17:34:19.489Z,11.90
2018-11-02T17:36:47.831Z,11.55
2018-11-02T17:39:16.163Z,11.98
2018-11-02T17:41:44.511Z,11.96
2018-11-02T17:44:12.824Z,11.79
2018-11-02T17:46:41.170Z,11.49
2018-11-02T17:49:09.494Z,11.45
2018-11-02T17:51:37.843Z,11.77
2018-11-02T17:54:06.207Z,12.11
2018-11-02T17:56:34.526Z,11.72
2018-11-02T17:59:02.887Z,11.93
2018-11-02T18:01:31.240Z,12.10
2018-11-02T18:03:59.613Z,12.27
2018-11-02T18:06:28.639Z,12.29
2018-11-02T18:08:57.003Z,11.37
2018-11-02T18:11:25.359Z,11.71
2018-11-02T18:13:53.674Z,11.18
2018-11-02T18:16:22.019Z,11.71
2018-11-02T18:18:50.361Z,11.67
2018-11-02T18:21:18.675Z,11.27
2018-11-02T18:23:47.024Z,11.45
2018-11-02T18:26:15.338Z,11.18
2018-11-02T18:28:43.663Z,11.27
2018-11-02T18:31:11.980Z,11.12
2018-11-02T18:33:40.315Z,10.68
2018-11-02T18:36:08.670Z,11.33
2018-11-02T18:38:37.022Z,11.47
2018-11-02T18:41:05.387Z,11.76
2018-11-02T18:43:33.770Z,11.35
2018-11-02T18:46:02.144Z,12.05
2018-11-02T18:48:30.503Z,12.14
2018-11-02T18:50:58.867Z,12.11
2018-11-02T18:53:27.174Z,12.35
2018-11-02T18:55:55.523Z,12.35
2018-11-02T18:58:23.847Z,12.01
2018-11-02T19:00:52.190Z,11.35
2018-11-02T19:03:20.526Z,11.74
2018-11-02T19:05:49.916Z,11.88
2018-11-02T19:08:18.182Z,11.86
2018-11-02T19:10:46.562Z,11.46
2018-11-02T19:13:14.896Z,12.10
2018-11-02T19:15:43.295Z,12.01
2018-11-02T19:18:11.610Z,12.14
2018-11-02T19:20:39.951Z,11.12
2018-11-02T19:23:08.259Z,11.86
2018-11-02T19:25:36.596Z,11.85
2018-11-02T19:28:04.911Z,11.85
2018-11-02T19:30:33.253Z,12.00
2018-11-02T19:33:01.669Z,11.71
2018-11-02T19:35:30.040Z,11.51
2018-11-02T19:37:58.373Z,11.65
2018-11-02T19:40:26.666Z,11.69
2018-11-02T19:42:55.048Z,11.45
2018-11-02T19:45:23.359Z,11.09
2018-11-02T19:47:59.736Z,10.95
2018-11-02T19:50:28.149Z,10.64
2018-11-02T19:52:56.391Z,11.14
2018-11-02T19:55:24.752Z,11.50
2018-11-02T19:57:53.022Z,11.58
2018-11-02T20:00:21.359Z,11.50
2018-11-02T20:02:49.675Z,11.25
2018-11-02T20:05:19.187Z,11.87
2018-11-02T20:07:47.538Z,11.95
2018-11-02T20:10:16.651Z,11.69
2018-11-02T20:12:45.614Z,11.50
2018-11-02T20:15:14.686Z,11.29
2018-11-02T20:17:43.137Z,11.55
2018-11-02T20:20:12.895Z,11.47
2018-11-02T20:22:41.415Z,11.36
2018-11-02T20:25:11.862Z,11.56
2018-11-02T20:27:40.297Z,11.42
2018-11-02T20:30:10.603Z,11.45
2018-11-02T20:32:39.155Z,11.55
2018-11-02T20:35:07.881Z,11.16
2018-11-02T20:37:36.690Z,10.69
2018-11-02T20:40:06.702Z,10.85
2018-11-02T20:42:35.123Z,10.37
2018-11-02T20:45:03.684Z,10.75
2018-11-02T20:47:38.251Z,11.00
2018-11-02T20:50:07.935Z,10.73
2018-11-02T20:52:36.332Z,11.38
2018-11-02T20:55:04.938Z,11.33
2018-11-02T20:57:33.329Z,11.33
2018-11-02T21:00:01.692Z,11.33
2018-11-02T21:02:30.122Z,10.92
2018-11-02T21:04:58.528Z,11.49
2018-11-02T21:07:27.148Z,11.13
2018-11-02T21:09:55.524Z,11.36
2018-11-02T21:12:23.965Z,11.29
2018-11-02T21:14:52.486Z,11.21
2018-11-02T21:17:21.256Z,11.52
2018-11-02T21:19:49.739Z,11.62
2018-11-02T21:22:18.167Z,11.57
2018-11-02T21:24:46.583Z,11.57
2018-11-02T21:27:14.990Z,11.40
2018-11-02T21:29:43.543Z,11.51
2018-11-02T21:32:12.047Z,11.51
2018-11-02T21:34:40.461Z,11.50
2018-11-02T21:37:08.867Z,11.03
2018-11-02T21:39:37.227Z,11.49
2018-11-02T21:42:05.857Z,11.37
2018-11-02T21:44:34.290Z,11.55
2018-11-02T21:47:02.854Z,11.52
2018-11-02T21:49:31.294Z,11.26
2018-11-02T21:51:59.771Z,11.72
2018-11-02T21:54:28.246Z,11.49
2018-11-02T21:56:56.626Z,11.37
2018-11-02T21:59:25.035Z,11.40
2018-11-02T22:01:53.535Z,11.20
2018-11-02T22:04:21.970Z,11.18
2018-11-02T22:06:50.434Z,11.33
2018-11-02T22:09:18.830Z,10.80
2018-11-02T22:11:47.358Z,11.14
2018-11-02T22:14:15.783Z,11.07
2018-11-02T22:16:44.220Z,10.94
2018-11-02T22:19:12.772Z,10.95
2018-11-02T22:21:41.091Z,10.87
2018-11-02T22:24:09.626Z,11.03
2018-11-02T22:26:37.987Z,10.96
2018-11-02T22:29:06.600Z,10.89
2018-11-02T22:31:34.956Z,10.77
2018-11-02T22:34:03.418Z,10.75
2018-11-02T22:36:31.923Z,10.53
2018-11-02T22:39:00.474Z,10.36
2018-11-02T22:41:28.950Z,10.39
2018-11-02T22:43:57.407Z,10.41
2018-11-02T22:46:25.919Z,10.26
2018-11-02T22:48:54.344Z,10.38
2018-11-02T22:51:22.768Z,10.26
2018-11-02T22:53:51.247Z,10.48
2018-11-02T22:56:19.726Z,10.12
2018-11-02T22:58:48.086Z,10.36
2018-11-02T23:01:21.847Z,10.21
2018-11-02T23:03:50.451Z,10.10
2018-11-02T23:06:18.887Z,9.98
2018-11-02T23:08:47.397Z,9.69
2018-11-02T23:11:15.737Z,9.59
2018-11-02T23:13:44.223Z,8.97
2018-11-02T23:16:12.763Z,9.11
2018-11-02T23:18:41.079Z,9.13
2018-11-02T23:21:09.474Z,9.20
2018-11-02T23:23:37.928Z,9.21
2018-11-02T23:26:06.316Z,9.38
2018-11-02T23:28:34.631Z,9.59
2018-11-02T23:31:03.239Z,9.40
2018-11-02T23:33:31.684Z,9.32
2018-11-02T23:36:00.166Z,9.10
2018-11-02T23:38:28.567Z,9.15
2018-11-02T23:40:56.968Z,9.31
2018-11-02T23:43:25.439Z,9.21
2018-11-02T23:45:53.933Z,9.01
2018-11-02T23:48:22.338Z,8.56
2018-11-02T23:53:46.605Z,8.47
2018-11-02T23:56:15.010Z,8.22
2018-11-02T23:58:43.369Z,8.15
